createdAt,value
2019-01-24T00:01:13.861Z,84.32
2019-01-24T00:06:52.851Z,73.07
2019-01-24T00:09:22.178Z,79.58
2019-01-24T00:11:51.083Z,77.03
2019-01-24T00:14:20.387Z,90.57
2019-01-24T00:16:49.635Z,83.35
2019-01-24T00:19:18.646Z,73.17
2019-01-24T00:21:47.592Z,78.97
2019-01-24T00:24:16.546Z,76.82
2019-01-24T00:26:45.827Z,81.22
2019-01-24T00:29:14.725Z,78.72
2019-01-24T00:31:44.402Z,80.75
2019-01-24T00:34:13.318Z,89.03
2019-01-24T00:36:50.692Z,79.27
2019-01-24T00:39:19.587Z,90.57
2019-01-24T00:41:48.524Z,85.32
2019-01-24T00:44:17.507Z,87.95
2019-01-24T00:46:46.858Z,85.12
2019-01-24T00:49:15.767Z,84.85
2019-01-24T00:51:44.720Z,94.75
2019-01-24T00:54:13.959Z,83.75
2019-01-24T00:56:42.910Z,89.55
2019-01-24T00:59:11.862Z,91.10
2019-01-24T01:01:40.806Z,85.62
2019-01-24T01:04:12.888Z,83.92
2019-01-24T01:06:41.911Z,73.20
2019-01-24T01:09:10.833Z,92.07
2019-01-24T01:11:40.815Z,92.85
2019-01-24T01:14:09.740Z,84.17
2019-01-24T01:16:38.665Z,89.72
2019-01-24T01:19:25.204Z,84.62
2019-01-24T01:21:54.140Z,77.95
2019-01-24T01:24:23.474Z,81.20
2019-01-24T01:26:52.411Z,95.22
2019-01-24T01:29:21.718Z,77.00
2019-01-24T01:31:50.680Z,73.20
2019-01-24T01:34:38.054Z,77.72
2019-01-24T01:37:07.310Z,75.05
2019-01-24T01:39:36.608Z,70.15
2019-01-24T01:42:06.201Z,73.52
2019-01-24T01:44:35.121Z,71.90
2019-01-24T01:47:09.999Z,82.17
2019-01-24T01:49:39.238Z,84.32
2019-01-24T01:52:08.920Z,82.80
2019-01-24T01:54:37.911Z,81.42
2019-01-24T01:57:10.012Z,89.13
2019-01-24T01:59:38.918Z,71.02
2019-01-24T02:02:07.860Z,78.05
2019-01-24T02:04:42.874Z,93.00
2019-01-24T02:07:08.157Z,79.42
2019-01-24T02:09:37.090Z,81.25
2019-01-24T02:12:06.381Z,82.00
2019-01-24T02:14:35.711Z,96.05
2019-01-24T02:17:04.743Z,98.92
2019-01-24T02:19:33.821Z,80.92
2019-01-24T02:22:03.296Z,84.95
2019-01-24T02:24:32.577Z,82.85
2019-01-24T02:27:01.512Z,83.27
2019-01-24T02:29:30.585Z,84.20
2019-01-24T02:32:01.623Z,79.55
2019-01-24T02:34:30.494Z,91.87
2019-01-24T02:36:59.421Z,81.02
2019-01-24T02:39:28.720Z,84.87
2019-01-24T02:41:57.645Z,80.45
2019-01-24T02:44:42.749Z,82.88
2019-01-24T02:47:11.687Z,78.92
2019-01-24T02:49:41.125Z,90.00
2019-01-24T02:52:10.546Z,87.22
2019-01-24T02:54:39.450Z,90.12
2019-01-24T02:57:08.386Z,85.80
2019-01-24T02:59:37.863Z,78.62
2019-01-24T03:02:07.126Z,80.97
2019-01-24T03:04:36.040Z,86.15
2019-01-24T03:07:05.047Z,84.70
2019-01-24T03:09:33.941Z,86.42
2019-01-24T03:12:02.986Z,73.22
2019-01-24T03:14:31.976Z,66.53
2019-01-24T03:17:00.867Z,75.17
2019-01-24T03:19:29.781Z,83.97
2019-01-24T03:21:58.707Z,74.72
2019-01-24T03:24:27.593Z,81.35
2019-01-24T03:26:56.544Z,80.40
2019-01-24T03:29:25.798Z,79.07
2019-01-24T03:31:54.730Z,80.70
2019-01-24T03:35:04.345Z,80.57
2019-01-24T03:37:31.109Z,72.32
2019-01-24T03:40:00.011Z,87.05
2019-01-24T03:42:29.379Z,69.62
2019-01-24T03:44:58.312Z,72.97
2019-01-24T03:47:35.284Z,80.38
2019-01-24T03:50:05.292Z,67.67
2019-01-24T03:52:36.393Z,73.45
2019-01-24T03:55:05.895Z,84.97
2019-01-24T03:57:34.801Z,81.02
2019-01-24T04:00:13.566Z,83.27
2019-01-24T04:02:42.560Z,80.28
2019-01-24T04:05:12.184Z,78.05
2019-01-24T04:07:41.383Z,84.45
2019-01-24T04:10:11.932Z,89.00
2019-01-24T04:12:40.826Z,80.57
2019-01-24T04:15:11.028Z,82.40
2019-01-24T04:17:39.945Z,75.90
2019-01-24T04:20:09.408Z,82.95
2019-01-24T04:22:38.326Z,89.55
2019-01-24T04:25:26.234Z,87.10
2019-01-24T04:27:55.592Z,77.40
2019-01-24T04:30:24.786Z,83.72
2019-01-24T04:32:53.714Z,80.45
2019-01-24T04:35:22.927Z,95.95
2019-01-24T04:37:57.715Z,83.20
2019-01-24T04:40:27.007Z,73.02
2019-01-24T04:42:55.918Z,71.62
2019-01-24T04:45:24.885Z,89.15
2019-01-24T04:47:53.810Z,91.47
2019-01-24T04:50:26.938Z,88.00
2019-01-24T04:52:55.907Z,79.27
2019-01-24T04:55:24.847Z,74.22
2019-01-24T04:57:54.998Z,87.37
2019-01-24T05:00:30.650Z,85.03
2019-01-24T05:09:49.372Z,78.22
2019-01-24T05:12:24.930Z,75.25
2019-01-24T05:14:53.932Z,83.10
2019-01-24T05:17:23.503Z,86.32
2019-01-24T05:19:52.591Z,75.50
2019-01-24T05:22:21.821Z,74.92
2019-01-24T05:24:55.848Z,77.05
2019-01-24T05:27:24.781Z,75.65
2019-01-24T05:29:56.172Z,81.28
2019-01-24T05:32:25.185Z,77.45
2019-01-24T05:34:54.474Z,75.10
2019-01-24T05:37:32.551Z,77.27
2019-01-24T05:40:01.772Z,77.45
2019-01-24T05:42:49.687Z,76.67
2019-01-24T05:45:18.600Z,74.30
2019-01-24T05:47:47.976Z,75.90
2019-01-24T05:50:17.805Z,73.87
2019-01-24T05:52:47.228Z,81.05
2019-01-24T05:55:16.691Z,91.40
2019-01-24T05:57:57.870Z,89.22
2019-01-24T06:00:43.594Z,77.90
2019-01-24T06:03:18.638Z,88.27
2019-01-24T06:05:47.951Z,73.30
2019-01-24T06:08:21.040Z,80.38
2019-01-24T06:10:49.998Z,81.35
2019-01-24T06:13:18.969Z,85.38
2019-01-24T06:15:48.605Z,87.50
2019-01-24T06:18:17.877Z,79.53
2019-01-24T06:20:46.936Z,82.45
2019-01-24T06:23:15.836Z,85.75
2019-01-24T06:25:44.768Z,85.40
2019-01-24T06:28:14.059Z,85.50
2019-01-24T06:30:43.089Z,79.80
2019-01-24T06:33:34.863Z,75.05
2019-01-24T06:36:03.760Z,90.15
2019-01-24T06:38:32.686Z,86.70
2019-01-24T06:41:01.799Z,92.08
2019-01-24T06:43:31.538Z,76.35
2019-01-24T06:46:02.627Z,83.52
2019-01-24T06:48:31.750Z,83.20
2019-01-24T06:51:01.099Z,93.30
2019-01-24T06:53:31.427Z,81.32
2019-01-24T06:56:00.327Z,88.37
2019-01-24T06:58:29.281Z,85.12
2019-01-24T07:00:58.547Z,90.30
2019-01-24T07:03:27.487Z,94.65
2019-01-24T07:06:07.886Z,83.45
2019-01-24T07:08:36.897Z,99.20
2019-01-24T07:11:05.837Z,92.85
2019-01-24T07:13:34.810Z,92.00
2019-01-24T07:16:04.365Z,80.28
2019-01-24T07:18:33.347Z,100.53
2019-01-24T07:21:21.278Z,93.78
2019-01-24T07:24:27.824Z,79.72
2019-01-24T07:26:56.743Z,84.62
2019-01-24T07:29:25.780Z,87.80
2019-01-24T07:31:54.727Z,80.80
2019-01-24T07:34:23.709Z,83.37
2019-01-24T07:36:52.690Z,83.35
2019-01-24T07:39:21.747Z,70.60
2019-01-24T07:41:56.341Z,89.97
2019-01-24T07:44:25.367Z,84.70
2019-01-24T07:46:54.257Z,77.00
2019-01-24T07:49:23.334Z,83.90
2019-01-24T07:51:52.238Z,89.13
2019-01-24T07:54:21.188Z,88.22
2019-01-24T07:57:16.243Z,87.45
2019-01-24T07:59:45.631Z,86.87
2019-01-24T08:02:15.000Z,90.83
2019-01-24T08:04:43.927Z,87.85
2019-01-24T08:07:12.884Z,82.22
2019-01-24T08:13:05.855Z,91.25
2019-01-24T08:15:34.807Z,84.25
2019-01-24T08:18:03.737Z,76.72
2019-01-24T08:21:09.687Z,90.32
2019-01-24T08:23:39.178Z,83.30
2019-01-24T08:26:10.192Z,77.95
2019-01-24T08:28:39.124Z,84.60
2019-01-24T08:31:08.080Z,76.72
2019-01-24T08:33:37.042Z,79.90
2019-01-24T08:36:25.219Z,92.75
2019-01-24T08:38:54.257Z,73.30
2019-01-24T08:41:23.233Z,76.47
2019-01-24T08:43:52.751Z,82.50
2019-01-24T08:46:21.680Z,79.15
2019-01-24T08:48:51.094Z,87.20
2019-01-24T08:51:20.050Z,83.07
2019-01-24T08:53:48.998Z,67.50
2019-01-24T08:56:17.979Z,76.55
2019-01-24T08:58:46.892Z,71.70
2019-01-24T09:01:16.219Z,75.72
2019-01-24T09:03:45.640Z,85.92
2019-01-24T09:06:14.582Z,76.97
2019-01-24T09:08:44.320Z,89.35
2019-01-24T09:11:13.656Z,70.95
2019-01-24T09:13:42.608Z,71.20
2019-01-24T09:16:11.569Z,82.10
2019-01-24T09:18:40.523Z,70.37
2019-01-24T09:21:10.212Z,75.52
2019-01-24T09:24:04.511Z,70.12
2019-01-24T09:26:33.901Z,77.47
2019-01-24T09:29:02.898Z,80.20
2019-01-24T09:31:32.265Z,81.12
2019-01-24T09:34:01.202Z,81.78
2019-01-24T09:36:30.207Z,77.15
2019-01-24T09:38:59.565Z,79.60
2019-01-24T09:44:39.302Z,79.53
2019-01-24T09:47:08.331Z,85.42
2019-01-24T09:49:37.255Z,87.60
2019-01-24T09:52:06.142Z,87.55
2019-01-24T09:54:35.451Z,83.55
2019-01-24T09:57:04.501Z,84.62
2019-01-24T09:59:33.423Z,77.37
2019-01-24T10:02:02.480Z,80.83
2019-01-24T10:04:31.469Z,91.55
2019-01-24T10:07:00.352Z,75.23
2019-01-24T10:09:29.708Z,71.28
2019-01-24T10:12:33.867Z,88.75
2019-01-24T10:15:03.479Z,79.33
2019-01-24T10:21:05.000Z,85.45
2019-01-24T10:23:33.916Z,77.67
2019-01-24T10:26:02.868Z,83.10
2019-01-24T10:28:31.791Z,78.15
2019-01-24T10:31:00.876Z,68.83
2019-01-24T10:33:29.784Z,75.30
2019-01-24T10:35:58.730Z,56.95
2019-01-24T10:38:27.681Z,63.30
2019-01-24T10:40:57.341Z,68.52
2019-01-24T10:43:26.676Z,55.55
2019-01-24T10:45:55.968Z,58.08
2019-01-24T10:48:24.929Z,64.85
2019-01-24T10:50:53.879Z,72.47
2019-01-24T10:53:22.811Z,68.72
2019-01-24T10:55:51.828Z,72.58
2019-01-24T10:58:20.778Z,67.60
2019-01-24T11:00:50.102Z,62.78
2019-01-24T11:03:19.708Z,75.10
2019-01-24T11:05:48.811Z,77.35
2019-01-24T11:08:17.789Z,76.80
2019-01-24T11:10:46.714Z,66.15
2019-01-24T11:13:15.649Z,64.75
2019-01-24T11:15:44.539Z,69.30
2019-01-24T11:18:13.861Z,66.62
2019-01-24T11:20:59.996Z,55.98
2019-01-24T11:23:28.935Z,73.30
2019-01-24T11:25:58.663Z,60.50
2019-01-24T11:28:27.637Z,60.35
2019-01-24T11:30:57.499Z,64.62
2019-01-24T11:33:26.445Z,66.82
2019-01-24T11:35:55.752Z,64.90
2019-01-24T11:48:08.552Z,65.95
2019-01-24T11:50:37.539Z,66.17
2019-01-24T11:53:06.932Z,64.17
2019-01-24T11:55:35.886Z,65.83
2019-01-24T11:58:06.197Z,71.25
2019-01-24T12:00:55.240Z,66.65
2019-01-24T12:06:46.829Z,69.40
2019-01-24T12:09:16.087Z,64.22
2019-01-24T12:11:45.431Z,65.30
2019-01-24T12:14:20.938Z,71.75
2019-01-24T12:20:00.297Z,62.43
2019-01-24T12:22:40.527Z,67.82
2019-01-24T12:25:09.643Z,65.40
2019-01-24T12:27:42.082Z,68.55
2019-01-24T12:30:15.410Z,73.13
2019-01-24T12:32:44.384Z,68.77
2019-01-24T12:35:21.723Z,75.50
2019-01-24T12:37:51.073Z,68.12
2019-01-24T12:40:21.084Z,77.90
2019-01-24T12:42:50.237Z,67.17
2019-01-24T12:45:20.419Z,76.65
2019-01-24T12:47:56.055Z,72.37
2019-01-24T12:50:25.034Z,67.95
2019-01-24T12:53:04.836Z,62.00
2019-01-24T12:55:57.985Z,68.78
2019-01-24T12:58:33.311Z,71.97
2019-01-24T13:01:04.955Z,69.10
2019-01-24T13:03:33.930Z,67.93
2019-01-24T13:06:02.867Z,69.53
2019-01-24T13:08:31.902Z,66.23
2019-01-24T13:11:01.222Z,60.48
2019-01-24T13:13:30.264Z,67.40
2019-01-24T13:15:59.276Z,66.03
2019-01-24T13:18:29.562Z,64.25
2019-01-24T13:20:58.515Z,66.57
2019-01-24T13:23:34.431Z,74.72
2019-01-24T13:26:31.691Z,72.03
2019-01-24T13:29:00.650Z,71.20
2019-01-24T13:31:29.634Z,78.17
2019-01-24T13:34:24.900Z,77.15
2019-01-24T13:36:53.867Z,73.95
2019-01-24T13:39:23.222Z,79.72
2019-01-24T13:41:52.280Z,70.28
2019-01-24T13:44:21.744Z,72.67
2019-01-24T13:46:50.706Z,71.55
2019-01-24T13:49:25.660Z,79.65
2019-01-24T13:51:54.597Z,77.85
2019-01-24T13:54:23.528Z,77.78
2019-01-24T14:02:32.492Z,83.45
2019-01-24T14:05:01.385Z,74.07
2019-01-24T14:07:37.631Z,72.55
2019-01-24T14:13:29.177Z,79.13
2019-01-24T14:15:58.137Z,72.55
2019-01-24T14:18:27.061Z,68.70
2019-01-24T14:20:55.979Z,83.80
2019-01-24T14:23:24.988Z,77.75
2019-01-24T14:25:54.113Z,77.32
2019-01-24T14:28:23.024Z,78.78
2019-01-24T14:34:21.120Z,76.17
2019-01-24T14:36:50.100Z,74.90
2019-01-24T14:39:19.286Z,85.42
2019-01-24T14:41:48.210Z,85.87
2019-01-24T14:44:17.143Z,89.58
2019-01-24T14:46:46.076Z,82.17
2019-01-24T14:49:14.967Z,92.60
2019-01-24T14:51:43.937Z,81.15
2019-01-24T14:54:12.859Z,78.60
2019-01-24T14:56:41.823Z,83.58
2019-01-24T14:59:12.276Z,84.50
2019-01-24T15:01:41.171Z,88.58
2019-01-24T15:04:10.286Z,88.37
2019-01-24T15:06:40.089Z,94.42
2019-01-24T15:09:16.367Z,87.88
2019-01-24T15:12:06.331Z,81.70
2019-01-24T15:14:35.656Z,91.57
2019-01-24T15:17:10.847Z,78.02
2019-01-24T15:19:39.774Z,98.80
2019-01-24T15:22:28.008Z,86.90
2019-01-24T15:24:56.919Z,79.42
2019-01-24T15:27:40.337Z,85.77
2019-01-24T15:30:11.318Z,72.35
2019-01-24T15:36:11.510Z,80.05
2019-01-24T15:38:43.883Z,97.33
2019-01-24T15:41:13.198Z,93.22
2019-01-24T15:43:50.012Z,89.15
2019-01-24T15:46:34.324Z,95.47
2019-01-24T15:49:03.265Z,100.70
2019-01-24T15:51:34.198Z,99.87
2019-01-24T15:54:03.155Z,86.65
2019-01-24T15:56:35.506Z,96.67
2019-01-24T15:59:12.643Z,92.37
2019-01-24T16:01:49.199Z,99.40
2019-01-24T16:07:30.670Z,88.80
2019-01-24T16:09:59.612Z,92.85
2019-01-24T16:12:28.873Z,86.35
2019-01-24T16:14:58.163Z,100.33
2019-01-24T16:17:27.472Z,90.42
2019-01-24T16:23:39.639Z,96.37
2019-01-24T16:26:13.811Z,85.28
2019-01-24T16:28:42.729Z,99.52
2019-01-24T16:31:11.661Z,96.37
2019-01-24T16:33:40.969Z,97.17
2019-01-24T16:36:10.725Z,92.25
2019-01-24T16:38:40.154Z,85.42
2019-01-24T16:41:20.862Z,86.67
2019-01-24T16:43:49.816Z,90.15
2019-01-24T16:46:18.733Z,92.42
2019-01-24T16:48:47.713Z,92.57
2019-01-24T16:51:16.742Z,103.90
2019-01-24T16:53:55.976Z,88.75
2019-01-24T16:56:24.895Z,91.30
2019-01-24T16:58:53.831Z,97.15
2019-01-24T17:01:23.081Z,103.62
2019-01-24T17:03:54.088Z,111.55
2019-01-24T17:06:23.030Z,89.55
2019-01-24T17:08:52.700Z,88.10
2019-01-24T17:11:45.927Z,94.97
2019-01-24T17:14:14.812Z,98.62
2019-01-24T17:16:43.748Z,95.97
2019-01-24T17:19:12.786Z,98.62
2019-01-24T17:21:41.706Z,94.20
2019-01-24T17:24:17.013Z,102.25
2019-01-24T17:26:45.920Z,100.72
2019-01-24T17:29:15.240Z,93.10
2019-01-24T17:31:44.180Z,107.47
2019-01-24T17:34:13.125Z,106.43
2019-01-24T17:36:42.861Z,106.40
2019-01-24T17:39:12.265Z,97.42
2019-01-24T17:41:41.552Z,100.50
2019-01-24T17:44:10.509Z,104.38
2019-01-24T17:46:39.869Z,94.70
2019-01-24T17:49:17.133Z,99.83
2019-01-24T17:51:46.087Z,105.92
2019-01-24T17:54:15.139Z,99.17
2019-01-24T17:56:44.088Z,101.80
2019-01-24T17:59:13.497Z,102.38
2019-01-24T18:01:43.000Z,100.45
2019-01-24T18:04:11.970Z,109.55
2019-01-24T18:06:40.903Z,112.47
2019-01-24T18:09:10.347Z,107.30
2019-01-24T18:11:39.304Z,107.03
2019-01-24T18:14:08.246Z,103.25
2019-01-24T18:16:37.159Z,98.87
2019-01-24T18:19:06.104Z,93.87
2019-01-24T18:21:35.103Z,98.42
2019-01-24T18:24:04.014Z,105.25
2019-01-24T18:26:33.375Z,103.10
2019-01-24T18:29:02.336Z,99.72
2019-01-24T18:31:31.416Z,101.42
2019-01-24T18:34:07.925Z,109.60
2019-01-24T18:36:36.923Z,112.37
2019-01-24T18:39:08.201Z,107.50
2019-01-24T18:41:37.112Z,99.30
2019-01-24T18:47:16.574Z,101.33
2019-01-24T18:49:45.558Z,103.95
2019-01-24T18:52:14.868Z,104.97
2019-01-24T18:54:43.834Z,111.08
2019-01-24T18:57:12.802Z,111.77
2019-01-24T18:59:41.906Z,104.23
2019-01-24T19:02:11.168Z,105.32
2019-01-24T19:04:47.291Z,101.40
2019-01-24T19:07:16.533Z,104.38
2019-01-24T19:09:45.436Z,103.60
2019-01-24T19:12:26.717Z,102.47
2019-01-24T19:14:55.660Z,99.28
2019-01-24T19:17:24.600Z,99.20
2019-01-24T19:19:53.574Z,94.90
2019-01-24T19:22:22.499Z,109.52
2019-01-24T19:24:51.492Z,97.72
2019-01-24T19:27:20.546Z,104.30
2019-01-24T19:29:49.798Z,97.12
2019-01-24T19:32:18.753Z,102.60
2019-01-24T19:34:47.680Z,102.35
2019-01-24T19:37:16.655Z,103.30
2019-01-24T19:39:51.613Z,109.03
2019-01-24T19:42:20.507Z,101.85
2019-01-24T19:44:49.565Z,100.78
2019-01-24T19:47:18.479Z,98.87
2019-01-24T19:50:24.998Z,101.33
2019-01-24T19:52:53.950Z,105.27
2019-01-24T19:55:22.849Z,101.95
2019-01-24T19:57:51.836Z,107.87
2019-01-24T20:00:24.708Z,98.45
2019-01-24T20:02:53.873Z,99.20
2019-01-24T20:05:22.818Z,98.82
2019-01-24T20:07:52.224Z,94.22
2019-01-24T20:10:23.361Z,104.53
2019-01-24T20:12:52.283Z,107.25
2019-01-24T20:15:22.148Z,113.55
2019-01-24T20:17:51.084Z,107.87
2019-01-24T20:20:29.392Z,102.02
2019-01-24T20:22:58.337Z,102.67
2019-01-24T20:25:28.137Z,102.00
2019-01-24T20:27:57.115Z,105.37
2019-01-24T20:30:26.985Z,98.93
2019-01-24T20:32:56.473Z,101.82
2019-01-24T20:35:51.222Z,99.60
2019-01-24T20:38:20.245Z,99.22
2019-01-24T20:40:49.175Z,91.87
2019-01-24T20:49:42.894Z,110.25
2019-01-24T20:52:12.926Z,105.15
2019-01-24T20:54:47.719Z,100.22
2019-01-24T20:57:30.813Z,96.90
2019-01-24T20:59:59.785Z,93.90
2019-01-24T21:02:29.311Z,93.85
2019-01-24T21:04:59.124Z,106.45
2019-01-24T21:07:29.171Z,96.72
2019-01-24T21:10:10.889Z,98.70
2019-01-24T21:12:48.363Z,103.75
2019-01-24T21:15:43.212Z,98.87
2019-01-24T21:18:15.318Z,100.25
2019-01-24T21:21:09.198Z,94.90
2019-01-24T21:23:47.554Z,96.25
2019-01-24T21:26:16.568Z,106.52
2019-01-24T21:28:45.581Z,100.12
2019-01-24T21:31:14.512Z,97.75
2019-01-24T21:33:43.482Z,93.82
2019-01-24T21:36:18.582Z,99.22
2019-01-24T21:38:47.524Z,95.72
2019-01-24T21:41:16.437Z,80.60
2019-01-24T21:43:45.426Z,83.15
2019-01-24T21:46:27.767Z,92.15
2019-01-24T21:48:57.190Z,95.97
2019-01-24T21:51:26.153Z,89.42
2019-01-24T21:53:55.462Z,89.35
2019-01-24T21:56:30.266Z,81.28
2019-01-24T21:58:59.220Z,79.87
2019-01-24T22:01:28.192Z,89.90
2019-01-24T22:03:57.138Z,93.78
2019-01-24T22:06:27.083Z,94.67
2019-01-24T22:08:56.360Z,81.40
2019-01-24T22:11:25.318Z,90.25
2019-01-24T22:13:54.504Z,88.33
2019-01-24T22:16:23.851Z,87.17
2019-01-24T22:18:52.824Z,89.58
2019-01-24T22:21:21.786Z,85.00
2019-01-24T22:23:50.732Z,89.42
2019-01-24T22:26:19.783Z,87.70
2019-01-24T22:28:48.736Z,95.60
2019-01-24T22:31:18.129Z,87.27
2019-01-24T22:33:47.114Z,100.42
2019-01-24T22:36:16.087Z,104.92
2019-01-24T22:38:45.547Z,95.40
2019-01-24T22:41:14.522Z,95.80
2019-01-24T22:43:43.476Z,92.97
2019-01-24T22:46:12.401Z,107.35
2019-01-24T22:48:43.445Z,83.42
2019-01-24T22:51:12.441Z,92.60
2019-01-24T22:53:41.421Z,95.70
2019-01-24T22:56:10.721Z,89.60
2019-01-24T22:58:39.690Z,87.75
2019-01-24T23:01:15.737Z,85.77
2019-01-24T23:03:49.264Z,91.45
2019-01-24T23:06:18.234Z,90.12
2019-01-24T23:08:47.186Z,85.03
2019-01-24T23:11:16.217Z,85.62
2019-01-24T23:13:45.218Z,84.67
2019-01-24T23:16:14.244Z,82.88
2019-01-24T23:18:43.168Z,85.00
2019-01-24T23:21:12.190Z,86.90
2019-01-24T23:23:41.169Z,75.52
2019-01-24T23:26:10.117Z,74.82
2019-01-24T23:28:39.093Z,76.25
2019-01-24T23:31:08.079Z,67.87
2019-01-24T23:33:37.123Z,72.90
2019-01-24T23:36:06.272Z,75.65
2019-01-24T23:38:35.212Z,67.62
2019-01-24T23:41:04.562Z,60.63
2019-01-24T23:43:33.946Z,55.45
2019-01-24T23:46:03.097Z,54.25
2019-01-24T23:48:32.754Z,51.42
2019-01-24T23:51:01.699Z,48.30
2019-01-24T23:53:30.976Z,47.08
2019-01-24T23:55:59.958Z,46.95
2019-01-24T23:58:28.907Z,48.45
